createdAt,value
2024-01-20T00:00:32.244Z,100329.89
2024-01-20T00:02:59.800Z,100334.84
2024-01-20T00:05:27.416Z,100337.50
2024-01-20T00:07:55.679Z,100341.06
2024-01-20T00:10:23.295Z,100346.46
2024-01-20T00:12:50.973Z,100348.45
2024-01-20T00:15:18.540Z,100348.85
2024-01-20T00:17:46.882Z,100347.20
2024-01-20T00:20:14.821Z,100346.16
2024-01-20T00:22:42.679Z,100351.80
2024-01-20T00:25:11.590Z,100350.88
2024-01-20T00:27:40.099Z,100350.33
2024-01-20T00:30:08.276Z,100347.41
2024-01-20T00:32:36.040Z,100349.48
2024-01-20T00:35:07.706Z,100353.05
2024-01-20T00:37:36.418Z,100356.39
2024-01-20T00:40:04.396Z,100357.47
2024-01-20T00:42:32.032Z,100353.00
2024-01-20T00:44:59.679Z,100352.39
2024-01-20T00:47:27.272Z,100353.66
2024-01-20T00:49:55.100Z,100355.50
2024-01-20T00:52:22.871Z,100350.73
2024-01-20T00:54:50.423Z,100345.77
2024-01-20T00:57:17.988Z,100344.04
2024-01-20T00:59:45.647Z,100340.88
2024-01-20T01:02:13.365Z,100343.38
2024-01-20T01:04:41.131Z,100345.10
2024-01-20T01:07:08.844Z,100345.65
2024-01-20T01:09:36.389Z,100347.10
2024-01-20T01:12:04.060Z,100349.46
2024-01-20T01:14:31.711Z,100353.12
2024-01-20T01:16:59.310Z,100355.36
2024-01-20T01:19:26.954Z,100358.23
2024-01-20T01:21:54.481Z,100364.13
2024-01-20T01:24:22.202Z,100372.48
2024-01-20T01:26:49.925Z,100376.42
2024-01-20T01:29:18.031Z,100374.95
2024-01-20T01:31:45.911Z,100377.70
2024-01-20T01:34:13.749Z,100371.04
2024-01-20T01:36:41.474Z,100366.36
2024-01-20T01:39:09.363Z,100366.13
2024-01-20T01:41:36.790Z,100368.90
2024-01-20T01:44:04.376Z,100372.52
2024-01-20T01:46:31.921Z,100370.61
2024-01-20T01:48:59.585Z,100373.16
2024-01-20T01:51:27.551Z,100370.73
2024-01-20T01:53:55.240Z,100368.02
2024-01-20T01:56:22.965Z,100367.98
2024-01-20T01:58:50.637Z,100368.36
2024-01-20T02:01:18.366Z,100364.58
2024-01-20T02:03:46.230Z,100367.30
2024-01-20T02:06:14.090Z,100366.23
2024-01-20T02:08:41.783Z,100373.84
2024-01-20T02:11:10.381Z,100379.09
2024-01-20T02:13:37.939Z,100379.83
2024-01-20T02:16:05.899Z,100377.77
2024-01-20T02:18:33.394Z,100376.99
2024-01-20T02:21:01.250Z,100377.37
2024-01-20T02:23:28.995Z,100379.58
2024-01-20T02:25:56.640Z,100374.70
2024-01-20T02:28:24.192Z,100375.18
2024-01-20T02:30:51.892Z,100374.61
2024-01-20T02:33:19.630Z,100375.81
2024-01-20T02:35:47.278Z,100376.52
2024-01-20T02:38:15.255Z,100376.04
2024-01-20T02:40:42.812Z,100376.44
2024-01-20T02:43:10.470Z,100374.81
2024-01-20T02:45:38.049Z,100378.05
2024-01-20T02:48:05.722Z,100377.66
2024-01-20T02:50:33.553Z,100376.32
2024-01-20T02:53:01.208Z,100373.25
2024-01-20T02:55:29.290Z,100377.06
2024-01-20T02:57:56.956Z,100372.43
2024-01-20T03:00:24.657Z,100376.85
2024-01-20T03:02:52.233Z,100372.77
2024-01-20T03:05:19.847Z,100370.54
2024-01-20T03:07:47.502Z,100377.30
2024-01-20T03:10:15.055Z,100375.86
2024-01-20T03:12:42.745Z,100378.75
2024-01-20T03:15:10.320Z,100377.19
2024-01-20T03:17:38.439Z,100379.15
2024-01-20T03:20:06.209Z,100384.29
2024-01-20T03:22:33.777Z,100387.76
2024-01-20T03:25:01.496Z,100387.99
2024-01-20T03:27:29.116Z,100391.20
2024-01-20T03:29:56.766Z,100393.91
2024-01-20T03:32:24.460Z,100400.11
2024-01-20T03:34:52.093Z,100397.86
2024-01-20T03:37:19.742Z,100398.10
2024-01-20T03:39:47.313Z,100401.27
2024-01-20T03:42:14.889Z,100399.67
2024-01-20T03:44:42.419Z,100403.83
2024-01-20T03:47:10.505Z,100404.10
2024-01-20T03:49:38.200Z,100400.30
2024-01-20T03:52:05.915Z,100393.65
2024-01-20T03:54:33.483Z,100395.97
2024-01-20T03:57:01.477Z,100398.65
2024-01-20T03:59:29.101Z,100400.17
2024-01-20T04:01:56.972Z,100402.17
2024-01-20T04:04:24.739Z,100407.16
2024-01-20T04:06:52.491Z,100408.48
2024-01-20T04:09:20.076Z,100412.60
2024-01-20T04:11:47.818Z,100412.77
2024-01-20T04:14:15.581Z,100418.77
2024-01-20T04:16:43.347Z,100422.27
2024-01-20T04:19:11.026Z,100425.41
2024-01-20T04:21:38.976Z,100432.67
2024-01-20T04:24:06.753Z,100431.13
2024-01-20T04:26:34.398Z,100432.94
2024-01-20T04:29:02.082Z,100434.28
2024-01-20T04:31:29.726Z,100439.85
2024-01-20T04:33:57.481Z,100443.06
2024-01-20T04:36:25.182Z,100443.16
2024-01-20T04:38:53.239Z,100446.23
2024-01-20T04:41:21.012Z,100451.33
2024-01-20T04:43:48.744Z,100448.97
2024-01-20T04:46:16.521Z,100450.98
2024-01-20T04:48:44.369Z,100455.48
2024-01-20T04:51:12.179Z,100458.14
2024-01-20T04:53:39.883Z,100458.38
2024-01-20T04:56:07.573Z,100457.59
2024-01-20T04:58:35.011Z,100457.54
2024-01-20T05:01:02.634Z,100460.98
2024-01-20T05:03:30.515Z,100462.96
2024-01-20T05:05:58.356Z,100460.71
2024-01-20T05:08:26.266Z,100463.35
2024-01-20T05:10:54.130Z,100461.84
2024-01-20T05:13:21.688Z,100466.19
2024-01-20T05:15:49.458Z,100471.45
2024-01-20T05:18:17.379Z,100472.20
2024-01-20T05:20:45.085Z,100469.21
2024-01-20T05:23:12.868Z,100470.83
2024-01-20T05:25:40.833Z,100472.72
2024-01-20T05:28:08.381Z,100471.12
2024-01-20T05:30:36.104Z,100470.67
2024-01-20T05:33:03.960Z,100475.13
2024-01-20T05:35:31.875Z,100477.27
2024-01-20T05:37:59.633Z,100478.43
2024-01-20T05:40:27.200Z,100480.52
2024-01-20T05:42:54.755Z,100487.21
2024-01-20T05:45:22.687Z,100488.47
2024-01-20T05:47:50.475Z,100490.61
2024-01-20T05:50:18.140Z,100495.37
2024-01-20T05:52:45.847Z,100497.27
2024-01-20T05:55:13.580Z,100499.77
2024-01-20T05:57:41.232Z,100499.77
2024-01-20T06:00:08.867Z,100499.98
2024-01-20T06:02:36.553Z,100502.11
2024-01-20T06:05:04.467Z,100501.59
2024-01-20T06:07:32.496Z,100508.82
2024-01-20T06:10:00.275Z,100510.42
2024-01-20T06:12:28.290Z,100512.34
2024-01-20T06:14:56.241Z,100513.89
2024-01-20T06:17:24.071Z,100517.05
2024-01-20T06:19:51.668Z,100515.73
2024-01-20T06:22:19.285Z,100514.16
2024-01-20T06:24:46.844Z,100515.14
2024-01-20T06:27:14.529Z,100516.68
2024-01-20T06:29:42.069Z,100512.20
2024-01-20T06:32:09.921Z,100512.73
2024-01-20T06:34:37.534Z,100516.30
2024-01-20T06:37:05.252Z,100522.65
2024-01-20T06:39:33.015Z,100522.06
2024-01-20T06:42:00.846Z,100524.52
2024-01-20T06:44:28.540Z,100526.64
2024-01-20T06:46:56.223Z,100524.81
2024-01-20T06:49:23.860Z,100524.77
2024-01-20T06:51:51.618Z,100527.16
2024-01-20T06:54:19.410Z,100529.77
2024-01-20T06:56:47.045Z,100532.09
2024-01-20T06:59:14.702Z,100535.11
2024-01-20T07:01:42.368Z,100529.96
2024-01-20T07:04:10.057Z,100536.36
2024-01-20T07:06:37.928Z,100543.91
2024-01-20T07:09:05.707Z,100547.98
2024-01-20T07:11:33.319Z,100548.61
2024-01-20T07:14:01.004Z,100546.46
2024-01-20T07:16:28.641Z,100547.95
2024-01-20T07:18:56.553Z,100545.20
2024-01-20T07:21:24.400Z,100552.77
2024-01-20T07:23:52.130Z,100550.88
2024-01-20T07:26:19.707Z,100551.42
2024-01-20T07:28:47.657Z,100552.45
2024-01-20T07:31:15.232Z,100544.64
2024-01-20T07:33:43.055Z,100550.90
2024-01-20T07:36:10.877Z,100553.80
2024-01-20T07:38:38.301Z,100553.96
2024-01-20T07:41:05.865Z,100560.48
2024-01-20T07:43:33.433Z,100561.56
2024-01-20T07:46:01.190Z,100559.89
2024-01-20T07:48:28.940Z,100564.45
2024-01-20T07:50:56.967Z,100560.36
2024-01-20T07:53:24.579Z,100568.37
2024-01-20T07:55:52.255Z,100569.13
2024-01-20T07:58:19.909Z,100573.29
2024-01-20T08:00:47.587Z,100576.33
2024-01-20T08:03:15.373Z,100578.79
2024-01-20T08:05:43.014Z,100576.70
2024-01-20T08:08:10.553Z,100580.21
2024-01-20T08:10:38.118Z,100585.84
2024-01-20T08:13:06.088Z,100585.00
2024-01-20T08:15:33.695Z,100585.59
2024-01-20T08:18:01.571Z,100593.55
2024-01-20T08:20:29.297Z,100589.63
2024-01-20T08:22:57.025Z,100593.90
2024-01-20T08:25:24.587Z,100597.58
2024-01-20T08:27:52.367Z,100606.90
2024-01-20T08:30:20.158Z,100609.94
2024-01-20T08:32:48.052Z,100613.41
2024-01-20T08:35:16.045Z,100613.71
2024-01-20T08:37:43.603Z,100614.08
2024-01-20T08:40:11.266Z,100612.74
2024-01-20T08:42:38.938Z,100608.39
2024-01-20T08:45:06.670Z,100606.34
2024-01-20T08:47:34.357Z,100607.48
2024-01-20T08:50:01.959Z,100611.46
2024-01-20T08:52:29.572Z,100607.52
2024-01-20T08:54:57.141Z,100608.38
2024-01-20T08:57:24.823Z,100615.59
2024-01-20T08:59:52.552Z,100616.69
2024-01-20T09:02:20.319Z,100619.79
2024-01-20T09:04:47.880Z,100625.06
2024-01-20T09:07:15.635Z,100627.77
2024-01-20T09:09:43.233Z,100632.23
2024-01-20T09:12:10.906Z,100635.29
2024-01-20T09:14:38.945Z,100635.17
2024-01-20T09:17:06.709Z,100636.61
2024-01-20T09:19:34.322Z,100641.14
2024-01-20T09:22:02.114Z,100645.20
2024-01-20T09:24:29.715Z,100643.35
2024-01-20T09:26:57.366Z,100643.52
2024-01-20T09:29:25.192Z,100643.52
2024-01-20T09:31:52.738Z,100646.04
2024-01-20T09:34:20.493Z,100646.42
2024-01-20T09:36:49.114Z,100641.51
2024-01-20T09:39:16.686Z,100639.73
2024-01-20T09:41:44.510Z,100638.67
2024-01-20T09:44:12.069Z,100637.30
2024-01-20T09:46:39.735Z,100637.40
2024-01-20T09:49:07.378Z,100639.63
2024-01-20T09:51:35.492Z,100641.07
2024-01-20T09:54:03.802Z,100644.83
2024-01-20T09:56:31.700Z,100644.16
2024-01-20T09:58:59.531Z,100642.63
2024-01-20T10:01:27.306Z,100641.10
2024-01-20T10:03:55.145Z,100639.52
2024-01-20T10:06:22.794Z,100636.77
2024-01-20T10:08:50.623Z,100634.70
2024-01-20T10:11:18.488Z,100635.64
2024-01-20T10:13:46.214Z,100637.44
2024-01-20T10:16:14.209Z,100634.66
2024-01-20T10:18:41.625Z,100637.73
2024-01-20T10:21:09.346Z,100641.66
2024-01-20T10:23:36.996Z,100642.52
2024-01-20T10:26:04.550Z,100641.30
2024-01-20T10:28:32.118Z,100645.55
2024-01-20T10:30:59.777Z,100643.29
2024-01-20T10:33:27.397Z,100645.22
2024-01-20T10:35:55.208Z,100644.32
2024-01-20T10:38:22.867Z,100644.02
2024-01-20T10:40:50.532Z,100635.66
2024-01-20T10:43:18.345Z,100639.42
2024-01-20T10:45:46.170Z,100643.30
2024-01-20T10:48:14.055Z,100646.10
2024-01-20T10:50:41.896Z,100641.58
2024-01-20T10:53:09.563Z,100637.88
2024-01-20T10:55:37.242Z,100637.22
2024-01-20T10:58:04.796Z,100634.52
2024-01-20T11:00:32.811Z,100633.81
2024-01-20T11:03:00.536Z,100630.45
2024-01-20T11:05:28.401Z,100630.81
2024-01-20T11:07:55.950Z,100630.55
2024-01-20T11:10:23.610Z,100627.67
2024-01-20T11:12:51.269Z,100624.98
2024-01-20T11:15:19.187Z,100625.36
2024-01-20T11:17:46.904Z,100622.05
2024-01-20T11:20:14.699Z,100620.90
2024-01-20T11:22:42.532Z,100620.48
2024-01-20T11:25:10.092Z,100621.46
2024-01-20T11:27:37.769Z,100624.23
2024-01-20T11:30:05.449Z,100626.42
2024-01-20T11:32:33.135Z,100629.06
2024-01-20T11:35:00.843Z,100622.59
2024-01-20T11:37:28.602Z,100619.92
2024-01-20T11:39:56.168Z,100618.55
2024-01-20T11:42:24.082Z,100622.70
2024-01-20T11:44:51.684Z,100618.89
2024-01-20T11:47:19.359Z,100619.02
2024-01-20T11:49:46.982Z,100614.11
2024-01-20T11:52:14.772Z,100617.28
2024-01-20T11:54:42.486Z,100614.35
2024-01-20T11:57:10.144Z,100614.20
2024-01-20T11:59:37.752Z,100612.45
2024-01-20T12:02:05.632Z,100612.77
2024-01-20T12:04:33.197Z,100615.09
2024-01-20T12:07:01.067Z,100608.49
2024-01-20T12:09:28.832Z,100609.39
2024-01-20T12:11:56.375Z,100603.20
2024-01-20T12:14:24.028Z,100604.27
2024-01-20T12:16:51.586Z,100603.75
2024-01-20T12:19:19.255Z,100603.09
2024-01-20T12:21:47.015Z,100602.23
2024-01-20T12:24:14.992Z,100597.17
2024-01-20T12:26:42.541Z,100599.23
2024-01-20T12:29:10.408Z,100597.30
2024-01-20T12:31:38.066Z,100591.95
2024-01-20T12:34:05.843Z,100591.27
2024-01-20T12:36:33.745Z,100588.66
2024-01-20T12:39:01.647Z,100587.16
2024-01-20T12:41:29.330Z,100586.46
2024-01-20T12:43:57.088Z,100592.90
2024-01-20T12:46:25.065Z,100590.26
2024-01-20T12:48:52.858Z,100587.48
2024-01-20T12:51:20.737Z,100583.92
2024-01-20T12:53:48.460Z,100585.41
2024-01-20T12:56:16.214Z,100586.93
2024-01-20T12:58:43.685Z,100587.06
2024-01-20T13:01:11.250Z,100588.77
2024-01-20T13:03:38.815Z,100592.27
2024-01-20T13:06:06.644Z,100593.16
2024-01-20T13:08:34.643Z,100595.99
2024-01-20T13:11:02.282Z,100596.13
2024-01-20T13:13:30.279Z,100597.57
2024-01-20T13:15:58.105Z,100601.80
2024-01-20T13:18:25.961Z,100597.21
2024-01-20T13:20:53.647Z,100596.96
2024-01-20T13:23:21.310Z,100596.29
2024-01-20T13:25:48.958Z,100598.33
2024-01-20T13:28:16.626Z,100604.16
2024-01-20T13:30:44.312Z,100602.61
2024-01-20T13:33:12.528Z,100614.30
2024-01-20T13:35:40.216Z,100617.06
2024-01-20T13:38:07.988Z,100613.45
2024-01-20T13:40:35.651Z,100621.80
2024-01-20T13:43:03.508Z,100622.65
2024-01-20T13:45:31.198Z,100623.45
2024-01-20T13:47:58.983Z,100622.80
2024-01-20T13:50:26.619Z,100623.04
2024-01-20T13:52:54.500Z,100625.62
2024-01-20T13:55:22.131Z,100629.07
2024-01-20T13:57:49.913Z,100627.58
2024-01-20T14:00:17.521Z,100632.11
2024-01-20T14:02:45.347Z,100638.06
2024-01-20T14:05:12.996Z,100637.59
2024-01-20T14:07:40.733Z,100643.71
2024-01-20T14:10:08.558Z,100646.61
2024-01-20T14:12:36.383Z,100643.94
2024-01-20T14:15:04.275Z,100639.97
2024-01-20T14:17:31.922Z,100642.15
2024-01-20T14:19:59.600Z,100639.21
2024-01-20T14:22:27.325Z,100641.04
2024-01-20T14:24:54.901Z,100645.27
2024-01-20T14:27:22.467Z,100649.22
2024-01-20T14:29:50.119Z,100645.11
2024-01-20T14:32:17.770Z,100650.59
2024-01-20T14:34:45.386Z,100650.98
2024-01-20T14:37:13.595Z,100651.09
2024-01-20T14:39:41.354Z,100652.09
2024-01-20T14:42:09.179Z,100655.00
2024-01-20T14:44:36.882Z,100658.98
2024-01-20T14:47:04.439Z,100654.80
2024-01-20T14:49:32.206Z,100661.60
2024-01-20T14:51:59.880Z,100660.08
2024-01-20T14:54:27.807Z,100661.58
2024-01-20T14:56:55.601Z,100659.91
2024-01-20T14:59:23.464Z,100667.67
2024-01-20T15:01:51.129Z,100670.35
2024-01-20T15:04:19.054Z,100675.77
2024-01-20T15:06:46.876Z,100686.74
2024-01-20T15:09:14.771Z,100687.40
2024-01-20T15:11:42.698Z,100681.05
2024-01-20T15:14:10.257Z,100680.04
2024-01-20T15:16:38.320Z,100681.10
2024-01-20T15:19:06.105Z,100683.39
2024-01-20T15:21:33.795Z,100689.41
2024-01-20T15:24:01.666Z,100692.88
2024-01-20T15:26:29.276Z,100693.38
2024-01-20T15:28:56.943Z,100692.68
2024-01-20T15:31:24.492Z,100691.70
2024-01-20T15:33:52.300Z,100693.44
2024-01-20T15:36:20.137Z,100688.63
2024-01-20T15:38:47.932Z,100696.89
2024-01-20T15:41:15.446Z,100699.52
2024-01-20T15:43:43.205Z,100701.01
2024-01-20T15:46:11.488Z,100706.86
2024-01-20T15:48:39.009Z,100706.33
2024-01-20T15:51:06.651Z,100707.02
2024-01-20T15:53:34.262Z,100711.52
2024-01-20T15:56:02.134Z,100711.35
2024-01-20T15:58:29.983Z,100712.65
2024-01-20T16:00:57.709Z,100718.70
2024-01-20T16:03:25.478Z,100724.91
2024-01-20T16:05:53.298Z,100726.63
2024-01-20T16:08:21.041Z,100730.64
2024-01-20T16:10:48.715Z,100732.55
2024-01-20T16:13:16.586Z,100735.27
2024-01-20T16:15:44.286Z,100738.28
2024-01-20T16:18:12.179Z,100742.93
2024-01-20T16:20:40.279Z,100746.12
2024-01-20T16:23:08.029Z,100748.06
2024-01-20T16:25:35.698Z,100750.77
2024-01-20T16:28:03.248Z,100755.44
2024-01-20T16:30:30.855Z,100757.01
2024-01-20T16:32:58.521Z,100761.52
2024-01-20T16:35:26.454Z,100763.23
2024-01-20T16:37:54.004Z,100762.50
2024-01-20T16:40:21.564Z,100756.41
2024-01-20T16:42:49.320Z,100755.20
2024-01-20T16:45:17.105Z,100764.02
2024-01-20T16:47:44.899Z,100770.65
2024-01-20T16:50:13.271Z,100771.66
2024-01-20T16:52:40.890Z,100776.77
2024-01-20T16:55:14.778Z,100776.63
2024-01-20T16:57:44.134Z,100787.54
2024-01-20T17:00:12.190Z,100792.42
2024-01-20T17:02:39.831Z,100799.52
2024-01-20T17:05:07.441Z,100801.67
2024-01-20T17:07:35.248Z,100803.27
2024-01-20T17:10:02.911Z,100803.23
2024-01-20T17:12:30.507Z,100809.11
2024-01-20T17:14:58.247Z,100809.91
2024-01-20T17:17:25.939Z,100811.67
2024-01-20T17:19:53.717Z,100812.02
2024-01-20T17:22:22.243Z,100816.48
2024-01-20T17:24:49.903Z,100827.09
2024-01-20T17:27:17.611Z,100828.70
2024-01-20T17:29:45.236Z,100835.10
2024-01-20T17:32:12.894Z,100838.12
2024-01-20T17:34:40.567Z,100837.16
2024-01-20T17:37:08.234Z,100841.13
2024-01-20T17:39:35.940Z,100842.48
2024-01-20T17:42:03.992Z,100840.91
2024-01-20T17:44:31.640Z,100844.70
2024-01-20T17:46:59.260Z,100846.41
2024-01-20T17:49:27.125Z,100850.77
2024-01-20T17:51:55.215Z,100853.52
2024-01-20T17:54:24.499Z,100861.89
2024-01-20T17:56:54.130Z,100860.50
2024-01-20T17:59:21.774Z,100860.96
2024-01-20T18:01:49.812Z,100863.41
2024-01-20T18:04:17.697Z,100866.09
2024-01-20T18:06:45.478Z,100867.22
2024-01-20T18:09:13.137Z,100864.40
2024-01-20T18:11:40.693Z,100864.33
2024-01-20T18:14:08.243Z,100863.96
2024-01-20T18:16:35.897Z,100872.56
2024-01-20T18:19:03.528Z,100873.41
2024-01-20T18:21:31.130Z,100879.27
2024-01-20T18:23:58.981Z,100883.39
2024-01-20T18:26:26.541Z,100878.77
2024-01-20T18:28:54.140Z,100884.64
2024-01-20T18:31:21.761Z,100880.23
2024-01-20T18:33:49.477Z,100887.11
2024-01-20T18:36:17.339Z,100886.62
2024-01-20T18:38:44.859Z,100888.42
2024-01-20T18:41:12.413Z,100891.77
2024-01-20T18:43:40.078Z,100894.77
2024-01-20T18:46:08.046Z,100897.34
2024-01-20T18:48:35.794Z,100897.96
2024-01-20T18:51:03.725Z,100900.10
2024-01-20T18:53:31.429Z,100903.55
2024-01-20T18:55:59.104Z,100907.19
2024-01-20T18:58:26.649Z,100911.83
2024-01-20T19:00:54.364Z,100912.23
2024-01-20T19:03:22.100Z,100920.26
2024-01-20T19:05:49.975Z,100928.35
2024-01-20T19:08:17.497Z,100931.06
2024-01-20T19:10:45.059Z,100931.73
2024-01-20T19:13:13.235Z,100929.13
2024-01-20T19:15:40.861Z,100931.01
2024-01-20T19:18:08.818Z,100930.54
2024-01-20T19:20:36.631Z,100929.45
2024-01-20T19:23:04.193Z,100928.70
2024-01-20T19:25:31.895Z,100929.92
2024-01-20T19:27:59.516Z,100929.98
2024-01-20T19:30:27.494Z,100930.72
2024-01-20T19:32:55.204Z,100936.55
2024-01-20T19:35:22.899Z,100936.23
2024-01-20T19:37:50.563Z,100945.03
2024-01-20T19:40:18.119Z,100945.25
2024-01-20T19:42:45.818Z,100950.02
2024-01-20T19:45:13.570Z,100950.85
2024-01-20T19:47:41.210Z,100948.16
2024-01-20T19:50:10.464Z,100951.38
2024-01-20T19:52:39.289Z,100955.89
2024-01-20T19:55:06.862Z,100957.61
2024-01-20T19:57:34.715Z,100964.02
2024-01-20T20:00:02.417Z,100966.95
2024-01-20T20:02:30.046Z,100974.23
2024-01-20T20:04:57.745Z,100972.99
2024-01-20T20:07:25.366Z,100973.80
2024-01-20T20:09:53.099Z,100971.97
2024-01-20T20:12:20.790Z,100976.45
2024-01-20T20:14:48.351Z,100977.13
2024-01-20T20:17:15.911Z,100981.57
2024-01-20T20:19:43.638Z,100983.31
2024-01-20T20:22:11.453Z,100984.23
2024-01-20T20:24:39.231Z,100984.41
2024-01-20T20:27:06.984Z,100985.42
2024-01-20T20:29:34.983Z,100976.84
2024-01-20T20:32:02.607Z,100975.56
2024-01-20T20:34:30.380Z,100971.30
2024-01-20T20:36:58.172Z,100972.48
2024-01-20T20:39:26.062Z,100971.52
2024-01-20T20:41:53.743Z,100978.27
2024-01-20T20:44:21.413Z,100983.01
2024-01-20T20:46:48.992Z,100987.17
2024-01-20T20:49:17.021Z,100991.29
2024-01-20T20:51:44.751Z,100989.36
2024-01-20T20:54:12.475Z,100982.70
2024-01-20T20:56:40.221Z,100984.14
2024-01-20T20:59:07.794Z,100985.49
2024-01-20T21:01:35.389Z,100987.40
2024-01-20T21:04:07.017Z,100984.08
2024-01-20T21:06:35.511Z,100979.84
2024-01-20T21:09:03.474Z,100974.52
2024-01-20T21:11:31.004Z,100972.19
2024-01-20T21:13:58.567Z,100976.23
2024-01-20T21:16:26.126Z,100975.89
2024-01-20T21:18:53.865Z,100977.44
2024-01-20T21:21:21.578Z,100975.41
2024-01-20T21:23:49.624Z,100977.34
2024-01-20T21:26:17.169Z,100975.27
2024-01-20T21:28:44.524Z,100978.38
2024-01-20T21:31:12.110Z,100984.89
2024-01-20T21:33:42.046Z,100985.58
2024-01-20T21:36:10.911Z,100986.66
2024-01-20T21:38:38.465Z,100994.52
2024-01-20T21:41:06.105Z,100996.23
2024-01-20T21:43:33.567Z,100996.92
2024-01-20T21:46:01.133Z,100996.39
2024-01-20T21:48:28.826Z,100994.48
2024-01-20T21:50:58.110Z,101000.74
2024-01-20T21:53:26.059Z,101002.32
2024-01-20T21:55:54.020Z,101011.69
2024-01-20T21:58:21.582Z,101013.10
2024-01-20T22:00:49.318Z,101018.16
2024-01-20T22:03:17.074Z,101021.23
2024-01-20T22:05:44.703Z,101020.38
2024-01-20T22:08:12.227Z,101023.27
2024-01-20T22:10:39.887Z,101029.34
2024-01-20T22:13:07.465Z,101029.20
2024-01-20T22:15:35.264Z,101029.11
2024-01-20T22:18:03.356Z,101027.70
2024-01-20T22:20:31.149Z,101028.25
2024-01-20T22:22:58.826Z,101028.85
2024-01-20T22:25:26.467Z,101031.27
2024-01-20T22:27:54.103Z,101033.17
2024-01-20T22:30:22.034Z,101035.36
2024-01-20T22:32:49.672Z,101037.16
2024-01-20T22:35:17.312Z,101044.56
2024-01-20T22:37:44.977Z,101046.37
2024-01-20T22:40:12.632Z,101049.26
2024-01-20T22:42:40.253Z,101045.49
2024-01-20T22:45:07.860Z,101050.76
2024-01-20T22:47:35.532Z,101053.55
2024-01-20T22:50:03.103Z,101053.31
2024-01-20T22:52:30.940Z,101053.14
2024-01-20T22:54:58.593Z,101046.84
2024-01-20T22:57:26.707Z,101044.42
2024-01-20T22:59:54.226Z,101042.33
2024-01-20T23:02:21.797Z,101047.08
2024-01-20T23:04:51.114Z,101046.15
2024-01-20T23:07:20.485Z,101042.38
2024-01-20T23:09:48.471Z,101046.99
2024-01-20T23:12:17.377Z,101047.65
2024-01-20T23:14:46.451Z,101049.23
2024-01-20T23:17:14.104Z,101048.20
2024-01-20T23:19:41.780Z,101046.48
2024-01-20T23:22:09.529Z,101045.09
2024-01-20T23:24:37.214Z,101049.03
2024-01-20T23:27:04.843Z,101050.88
2024-01-20T23:29:32.422Z,101055.14
2024-01-20T23:32:00.077Z,101060.44
2024-01-20T23:34:27.723Z,101063.51
2024-01-20T23:36:55.496Z,101066.44
2024-01-20T23:39:23.372Z,101067.39
2024-01-20T23:41:50.910Z,101074.65
2024-01-20T23:44:18.483Z,101073.51
2024-01-20T23:46:46.037Z,101075.77
2024-01-20T23:49:13.701Z,101072.98
2024-01-20T23:51:41.502Z,101079.82
2024-01-20T23:54:09.271Z,101081.88
2024-01-20T23:56:36.891Z,101078.19
2024-01-20T23:59:04.544Z,101078.43
